Twin Lake, MI (49457)

5:56 AM EDT on October 20, 2014 (GMT -0400)
Harvey/Catherine Area | Change Station
CLOSE
Current Station
Personal Weather Station
Location: Muskegon, MI
Elevation: 653 ft
Nearby Weather Stations

Elev 653 ft 43.23 °N, 86.20 °W | Updated 6 seconds ago

Partly Cloudy
Partly Cloudy
52.2 °F
Feels Like 52.2 °F
N
1.0
Wind Variable Wind from West
Gusts 2.0 mph

Today
High -- | Low -- °F
--% Chance of Precip.
Yesterday
High -- | Low -- °F
Precip. -- in
8:04 AM 6:53 PM
Waning Crescent, 12% visible
Pressure 29.81 in
Visibility 10.0 miles
Clouds Mostly Cloudy 7000 ft
Dew Point 49 °F
Humidity 90%
Rainfall 0.07 in
Snow Depth Not available.
UV 0 out of 12
Pollen 1.30 out of 12
Ozone Good
PM2.5 Good
Flu Activity Sporadic
METAR KMKG 200855Z AUTO 21009KT 10SM BKN070 12/09 A2980 RMK AO2 SLP093 60000 T01220089 56016 $

More Conditions Fewer Conditions

Pressure 29.81 in
Visibility 10.0 miles
Clouds Mostly Cloudy 7000 ft
Dew Point 49 °F
Humidity 90%
Rainfall 0.07 in
Snow Depth Not available.
UV 0 out of 12
Pollen 1.30 out of 12
Ozone Good
PM2.5 Good
Flu Activity Sporadic
METAR KMKG 200855Z AUTO 21009KT 10SM BKN070 12/09 A2980 RMK AO2 SLP093 60000 T01220089 56016 $

More Conditions Fewer Conditions

10-Day Weather Forecast

Almanac

Astronomy

Oct. 20, 2014 Rise Set
Actual Time 8:04 AM EDT 6:53 PM EDT
Civil Twilight 7:35 AM EDT 7:22 PM EDT
Nautical Twilight 7:02 AM EDT 7:55 PM EDT
Astronomical Twilight 6:29 AM EDT 8:28 PM EDT
Moon 4:47 AM EDT 5:20 PM EDT
Length of Visible Light 11h 46m
Length of Day
10h 48m
Waning Crescent, 12% of the Moon is Illuminated
Today
Waning Crescent
Oct 23
New
Oct 30
First Quarter
Nov 6
Full
Nov 14
Last Quarter

Today's Extremes

State Highs State Lows

Community

WunderPhotos

Upload Photos

1,763,325 photos uploaded!

Nearby

Air Quality

  Air Quality AQ Index Pollutant
Yesterday Good
PM2.5
Yesterday Good
OZONE
Current Good
PM2.5
Current Good
OZONE
Monday Good
PM2.5

Snow Depth

Station Depth Elevation
No new snow has been reported.

Earthquake Activity

City Distance Mag. Time & Date
No recent earthquake activity has been reported nearby.
Minimum magnitude displayed is 2.5.

Coastal Water Temperatures

Place Temperature
Holland, MI 54.0 °F

Nearby Weather Stations